sensor_id;sensor_type;location;lat;lon;timestamp;pressure;altitude;pressure_sealevel;temperature;humidity
74310;BME280;62722;51.142;17.052;2023-06-04T00:02:22;100713.09;;;10.85;56.39
74310;BME280;62722;51.142;17.052;2023-06-04T00:04:50;100711.78;;;10.92;56.27
74310;BME280;62722;51.142;17.052;2023-06-04T00:07:18;100714.41;;;10.92;56.23
74310;BME280;62722;51.142;17.052;2023-06-04T00:09:46;100705.81;;;10.88;56.47
74310;BME280;62722;51.142;17.052;2023-06-04T00:12:14;100708.47;;;10.88;56.90
74310;BME280;62722;51.142;17.052;2023-06-04T00:14:43;100706.41;;;10.93;59.03
74310;BME280;62722;51.142;17.052;2023-06-04T00:17:10;100698.38;;;10.95;59.01
74310;BME280;62722;51.142;17.052;2023-06-04T00:19:38;100699.03;;;10.98;58.34
74310;BME280;62722;51.142;17.052;2023-06-04T00:22:06;100707.25;;;10.94;59.23
74310;BME280;62722;51.142;17.052;2023-06-04T00:24:34;100704.91;;;10.89;59.69
74310;BME280;62722;51.142;17.052;2023-06-04T00:27:02;100706.56;;;10.90;60.06
74310;BME280;62722;51.142;17.052;2023-06-04T00:29:30;100707.81;;;10.85;60.26
74310;BME280;62722;51.142;17.052;2023-06-04T00:34:51;100712.41;;;10.81;60.26
74310;BME280;62722;51.142;17.052;2023-06-04T00:37:19;100706.91;;;10.70;61.02
74310;BME280;62722;51.142;17.052;2023-06-04T00:39:47;100707.78;;;10.70;60.87
74310;BME280;62722;51.142;17.052;2023-06-04T00:42:14;100705.78;;;10.60;61.35
74310;BME280;62722;51.142;17.052;2023-06-04T00:44:42;100703.63;;;10.66;61.39
74310;BME280;62722;51.142;17.052;2023-06-04T00:47:11;100704.81;;;10.61;61.26
74310;BME280;62722;51.142;17.052;2023-06-04T00:49:38;100696.31;;;10.56;61.86
74310;BME280;62722;51.142;17.052;2023-06-04T00:52:09;100694.03;;;10.50;62.35
74310;BME280;62722;51.142;17.052;2023-06-04T00:54:37;100686.09;;;10.50;62.18
74310;BME280;62722;51.142;17.052;2023-06-04T00:57:05;100695.66;;;10.52;62.18
74310;BME280;62722;51.142;17.052;2023-06-04T00:59:36;100695.66;;;10.52;61.95
74310;BME280;62722;51.142;17.052;2023-06-04T01:02:11;100691.50;;;10.48;62.54
74310;BME280;62722;51.142;17.052;2023-06-04T01:04:45;100693.75;;;10.54;62.30
74310;BME280;62722;51.142;17.052;2023-06-04T01:07:15;100697.19;;;10.56;59.51
74310;BME280;62722;51.142;17.052;2023-06-04T01:09:44;100690.56;;;10.49;58.93
74310;BME280;62722;51.142;17.052;2023-06-04T01:12:13;100693.53;;;10.43;59.04
74310;BME280;62722;51.142;17.052;2023-06-04T01:14:40;100691.44;;;10.34;59.45
74310;BME280;62722;51.142;17.052;2023-06-04T01:17:13;100683.63;;;10.33;59.30
74310;BME280;62722;51.142;17.052;2023-06-04T01:20:02;100687.09;;;10.33;60.70
74310;BME280;62722;51.142;17.052;2023-06-04T01:22:37;100683.25;;;10.39;61.76
74310;BME280;62722;51.142;17.052;2023-06-04T01:25:21;100691.34;;;10.36;60.38
74310;BME280;62722;51.142;17.052;2023-06-04T01:27:51;100698.59;;;10.32;59.66
74310;BME280;62722;51.142;17.052;2023-06-04T01:30:21;100702.50;;;10.25;60.62
74310;BME280;62722;51.142;17.052;2023-06-04T01:32:50;100700.06;;;10.22;60.15
74310;BME280;62722;51.142;17.052;2023-06-04T01:35:17;100689.41;;;10.08;60.02
74310;BME280;62722;51.142;17.052;2023-06-04T01:37:47;100695.63;;;10.07;61.14
74310;BME280;62722;51.142;17.052;2023-06-04T01:40:15;100692.38;;;10.02;61.00
74310;BME280;62722;51.142;17.052;2023-06-04T01:42:42;100706.53;;;10.01;61.61
74310;BME280;62722;51.142;17.052;2023-06-04T01:45:10;100689.75;;;10.02;63.17
74310;BME280;62722;51.142;17.052;2023-06-04T01:47:38;100690.16;;;10.10;63.58
74310;BME280;62722;51.142;17.052;2023-06-04T01:50:06;100698.94;;;10.10;63.43
74310;BME280;62722;51.142;17.052;2023-06-04T01:52:35;100687.88;;;10.04;64.57
74310;BME280;62722;51.142;17.052;2023-06-04T01:55:05;100695.00;;;10.02;64.54
74310;BME280;62722;51.142;17.052;2023-06-04T01:57:33;100703.09;;;9.83;65.41
74310;BME280;62722;51.142;17.052;2023-06-04T02:00:01;100700.22;;;9.88;65.35
74310;BME280;62722;51.142;17.052;2023-06-04T02:02:30;100696.31;;;9.79;65.87
74310;BME280;62722;51.142;17.052;2023-06-04T02:04:57;100701.84;;;9.74;65.82
74310;BME280;62722;51.142;17.052;2023-06-04T02:07:25;100706.50;;;9.69;66.50
74310;BME280;62722;51.142;17.052;2023-06-04T02:09:52;100703.97;;;9.68;66.50
74310;BME280;62722;51.142;17.052;2023-06-04T02:12:21;100704.03;;;9.66;66.20
74310;BME280;62722;51.142;17.052;2023-06-04T02:14:48;100709.81;;;9.57;66.98
74310;BME280;62722;51.142;17.052;2023-06-04T02:17:16;100704.63;;;9.56;66.93
74310;BME280;62722;51.142;17.052;2023-06-04T02:19:43;100703.78;;;9.55;67.38
74310;BME280;62722;51.142;17.052;2023-06-04T02:22:15;100702.25;;;9.51;67.19
74310;BME280;62722;51.142;17.052;2023-06-04T02:24:43;100701.78;;;9.43;67.89
74310;BME280;62722;51.142;17.052;2023-06-04T02:27:12;100707.16;;;9.42;67.78
74310;BME280;62722;51.142;17.052;2023-06-04T02:29:41;100705.38;;;9.42;68.25
74310;BME280;62722;51.142;17.052;2023-06-04T02:32:09;100699.66;;;9.34;68.43
74310;BME280;62722;51.142;17.052;2023-06-04T02:34:36;100710.91;;;9.38;68.01
74310;BME280;62722;51.142;17.052;2023-06-04T02:37:04;100701.47;;;9.34;68.23
74310;BME280;62722;51.142;17.052;2023-06-04T02:39:32;100710.97;;;9.36;68.09
74310;BME280;62722;51.142;17.052;2023-06-04T02:41:59;100711.31;;;9.30;67.96
74310;BME280;62722;51.142;17.052;2023-06-04T02:44:26;100713.00;;;9.31;68.27
74310;BME280;62722;51.142;17.052;2023-06-04T02:46:57;100709.94;;;9.23;68.31
74310;BME280;62722;51.142;17.052;2023-06-04T02:49:25;100708.38;;;9.19;68.62
74310;BME280;62722;51.142;17.052;2023-06-04T02:51:52;100711.09;;;9.17;68.32
74310;BME280;62722;51.142;17.052;2023-06-04T02:54:19;100715.38;;;9.20;68.61
74310;BME280;62722;51.142;17.052;2023-06-04T02:56:47;100707.69;;;9.15;68.91
74310;BME280;62722;51.142;17.052;2023-06-04T02:59:15;100709.38;;;9.16;66.74
74310;BME280;62722;51.142;17.052;2023-06-04T03:01:42;100712.56;;;9.06;66.29
74310;BME280;62722;51.142;17.052;2023-06-04T03:04:11;100711.69;;;8.90;67.08
74310;BME280;62722;51.142;17.052;2023-06-04T03:06:41;100712.06;;;8.82;67.49
74310;BME280;62722;51.142;17.052;2023-06-04T03:09:12;100711.16;;;8.83;67.25
74310;BME280;62722;51.142;17.052;2023-06-04T03:11:39;100715.41;;;8.86;67.58
74310;BME280;62722;51.142;17.052;2023-06-04T03:14:07;100715.41;;;8.86;67.94
74310;BME280;62722;51.142;17.052;2023-06-04T03:16:34;100722.50;;;8.84;67.71
74310;BME280;62722;51.142;17.052;2023-06-04T03:19:05;100723.13;;;8.89;68.52
74310;BME280;62722;51.142;17.052;2023-06-04T03:21:34;100709.97;;;8.89;67.45
74310;BME280;62722;51.142;17.052;2023-06-04T03:24:01;100722.38;;;8.87;67.57
74310;BME280;62722;51.142;17.052;2023-06-04T03:26:29;100725.94;;;8.86;67.90
74310;BME280;62722;51.142;17.052;2023-06-04T03:28:56;100720.19;;;8.77;67.89
74310;BME280;62722;51.142;17.052;2023-06-04T03:31:24;100724.84;;;8.72;68.16
74310;BME280;62722;51.142;17.052;2023-06-04T03:33:51;100725.00;;;8.69;68.53
74310;BME280;62722;51.142;17.052;2023-06-04T03:36:19;100726.69;;;8.70;68.16
74310;BME280;62722;51.142;17.052;2023-06-04T03:38:48;100730.78;;;8.76;67.81
74310;BME280;62722;51.142;17.052;2023-06-04T03:41:15;100730.41;;;8.84;67.40
74310;BME280;62722;51.142;17.052;2023-06-04T03:43:42;100736.31;;;8.89;67.51
74310;BME280;62722;51.142;17.052;2023-06-04T03:46:10;100734.28;;;8.94;67.50
74310;BME280;62722;51.142;17.052;2023-06-04T03:48:37;100734.13;;;8.97;67.52
74310;BME280;62722;51.142;17.052;2023-06-04T03:51:04;100737.34;;;9.02;67.62
74310;BME280;62722;51.142;17.052;2023-06-04T03:53:31;100729.00;;;9.11;67.39
74310;BME280;62722;51.142;17.052;2023-06-04T03:56:00;100730.44;;;9.16;67.67
74310;BME280;62722;51.142;17.052;2023-06-04T03:58:27;100738.72;;;9.26;66.65
74310;BME280;62722;51.142;17.052;2023-06-04T04:00:55;100743.25;;;9.40;66.50
74310;BME280;62722;51.142;17.052;2023-06-04T04:03:23;100736.50;;;9.51;66.03
74310;BME280;62722;51.142;17.052;2023-06-04T04:05:51;100744.66;;;9.62;65.89
74310;BME280;62722;51.142;17.052;2023-06-04T04:08:18;100744.94;;;9.73;65.16
74310;BME280;62722;51.142;17.052;2023-06-04T04:10:47;100738.22;;;9.84;64.91
74310;BME280;62722;51.142;17.052;2023-06-04T04:13:16;100734.16;;;9.94;64.95
74310;BME280;62722;51.142;17.052;2023-06-04T04:15:43;100730.25;;;10.01;63.96
74310;BME280;62722;51.142;17.052;2023-06-04T04:18:10;100738.41;;;10.12;63.76
74310;BME280;62722;51.142;17.052;2023-06-04T04:20:38;100730.78;;;10.23;63.52
74310;BME280;62722;51.142;17.052;2023-06-04T04:23:05;100739.50;;;10.39;63.64
74310;BME280;62722;51.142;17.052;2023-06-04T04:25:35;100741.44;;;10.51;62.62
74310;BME280;62722;51.142;17.052;2023-06-04T04:28:04;100735.66;;;10.60;62.24
74310;BME280;62722;51.142;17.052;2023-06-04T04:30:34;100734.41;;;10.82;61.46
74310;BME280;62722;51.142;17.052;2023-06-04T04:33:02;100740.09;;;11.04;60.45
74310;BME280;62722;51.142;17.052;2023-06-04T04:35:35;100737.47;;;11.18;59.88
74310;BME280;62722;51.142;17.052;2023-06-04T04:38:09;100727.94;;;11.15;60.20
74310;BME280;62722;51.142;17.052;2023-06-04T04:40:52;100738.72;;;11.27;60.62
74310;BME280;62722;51.142;17.052;2023-06-04T04:43:38;100714.28;;;11.23;60.88
74310;BME280;62722;51.142;17.052;2023-06-04T04:46:34;100739.25;;;11.46;59.24
74310;BME280;62722;51.142;17.052;2023-06-04T04:49:03;100737.59;;;11.59;58.33
74310;BME280;62722;51.142;17.052;2023-06-04T04:51:31;100738.03;;;11.65;58.05
74310;BME280;62722;51.142;17.052;2023-06-04T04:53:59;100746.53;;;11.70;58.04
74310;BME280;62722;51.142;17.052;2023-06-04T04:56:27;100743.44;;;11.64;58.06
74310;BME280;62722;51.142;17.052;2023-06-04T04:58:55;100744.25;;;11.64;58.23
74310;BME280;62722;51.142;17.052;2023-06-04T05:01:22;100740.41;;;11.70;58.31
74310;BME280;62722;51.142;17.052;2023-06-04T05:03:52;100742.41;;;11.81;58.01
74310;BME280;62722;51.142;17.052;2023-06-04T05:06:20;100746.38;;;11.88;58.31
74310;BME280;62722;51.142;17.052;2023-06-04T05:08:48;100754.88;;;11.93;58.05
74310;BME280;62722;51.142;17.052;2023-06-04T05:11:15;100756.19;;;12.00;57.14
74310;BME280;62722;51.142;17.052;2023-06-04T05:13:42;100747.63;;;12.09;56.87
74310;BME280;62722;51.142;17.052;2023-06-04T05:16:10;100756.78;;;12.17;56.78
74310;BME280;62722;51.142;17.052;2023-06-04T05:18:38;100753.66;;;12.25;57.57
74310;BME280;62722;51.142;17.052;2023-06-04T05:21:09;100755.16;;;12.29;56.41
74310;BME280;62722;51.142;17.052;2023-06-04T05:23:38;100749.66;;;12.32;56.09
74310;BME280;62722;51.142;17.052;2023-06-04T05:26:05;100745.09;;;12.34;56.86
74310;BME280;62722;51.142;17.052;2023-06-04T05:28:32;100752.25;;;12.46;56.58
74310;BME280;62722;51.142;17.052;2023-06-04T05:31:00;100755.03;;;12.57;55.79
74310;BME280;62722;51.142;17.052;2023-06-04T05:33:30;100753.16;;;12.59;55.83
74310;BME280;62722;51.142;17.052;2023-06-04T05:35:58;100754.44;;;12.66;55.88
74310;BME280;62722;51.142;17.052;2023-06-04T05:38:26;100743.44;;;12.73;56.16
74310;BME280;62722;51.142;17.052;2023-06-04T05:40:56;100751.72;;;12.81;55.86
74310;BME280;62722;51.142;17.052;2023-06-04T05:43:24;100752.38;;;12.84;55.51
74310;BME280;62722;51.142;17.052;2023-06-04T05:45:51;100749.81;;;12.83;55.54
74310;BME280;62722;51.142;17.052;2023-06-04T05:48:18;100750.66;;;12.83;56.77
74310;BME280;62722;51.142;17.052;2023-06-04T05:50:46;100754.28;;;12.95;55.63
74310;BME280;62722;51.142;17.052;2023-06-04T05:53:13;100754.41;;;13.06;55.60
74310;BME280;62722;51.142;17.052;2023-06-04T05:55:43;100748.16;;;13.07;56.68
74310;BME280;62722;51.142;17.052;2023-06-04T05:58:10;100758.63;;;13.08;57.40
74310;BME280;62722;51.142;17.052;2023-06-04T06:00:37;100754.75;;;13.27;54.61
74310;BME280;62722;51.142;17.052;2023-06-04T06:03:04;100757.72;;;13.35;54.70
74310;BME280;62722;51.142;17.052;2023-06-04T06:05:33;100764.75;;;13.48;53.34
74310;BME280;62722;51.142;17.052;2023-06-04T06:08:00;100759.44;;;13.48;53.49
74310;BME280;62722;51.142;17.052;2023-06-04T06:10:28;100762.75;;;13.52;53.93
74310;BME280;62722;51.142;17.052;2023-06-04T06:12:57;100764.09;;;13.57;53.18
74310;BME280;62722;51.142;17.052;2023-06-04T06:15:26;100768.97;;;13.63;53.43
74310;BME280;62722;51.142;17.052;2023-06-04T06:17:54;100756.13;;;13.70;53.05
74310;BME280;62722;51.142;17.052;2023-06-04T06:20:22;100756.47;;;13.65;55.29
74310;BME280;62722;51.142;17.052;2023-06-04T06:22:49;100769.19;;;13.60;56.17
74310;BME280;62722;51.142;17.052;2023-06-04T06:25:17;100766.03;;;13.55;55.90
74310;BME280;62722;51.142;17.052;2023-06-04T06:27:44;100756.03;;;13.59;55.47
74310;BME280;62722;51.142;17.052;2023-06-04T06:30:14;100761.63;;;13.80;53.82
74310;BME280;62722;51.142;17.052;2023-06-04T06:32:41;100765.34;;;13.77;55.69
74310;BME280;62722;51.142;17.052;2023-06-04T06:35:08;100766.28;;;13.89;52.70
74310;BME280;62722;51.142;17.052;2023-06-04T06:37:36;100769.13;;;13.98;53.00
74310;BME280;62722;51.142;17.052;2023-06-04T06:40:08;100767.00;;;14.03;53.06
74310;BME280;62722;51.142;17.052;2023-06-04T06:42:35;100767.84;;;14.04;54.34
74310;BME280;62722;51.142;17.052;2023-06-04T06:45:04;100775.53;;;14.20;54.15
74310;BME280;62722;51.142;17.052;2023-06-04T06:47:33;100772.47;;;14.26;53.71
74310;BME280;62722;51.142;17.052;2023-06-04T06:50:01;100770.06;;;14.34;53.34
74310;BME280;62722;51.142;17.052;2023-06-04T06:52:28;100777.50;;;14.41;53.50
74310;BME280;62722;51.142;17.052;2023-06-04T06:54:59;100774.56;;;14.33;54.90
74310;BME280;62722;51.142;17.052;2023-06-04T06:57:28;100775.75;;;14.29;54.73
74310;BME280;62722;51.142;17.052;2023-06-04T06:59:56;100783.19;;;14.24;54.04
74310;BME280;62722;51.142;17.052;2023-06-04T07:02:29;100765.66;;;14.22;53.88
74310;BME280;62722;51.142;17.052;2023-06-04T07:05:01;100772.66;;;14.35;52.67
74310;BME280;62722;51.142;17.052;2023-06-04T07:07:28;100776.13;;;14.48;52.13
74310;BME280;62722;51.142;17.052;2023-06-04T07:09:55;100774.81;;;14.54;51.65
74310;BME280;62722;51.142;17.052;2023-06-04T07:12:23;100778.47;;;14.64;51.64
74310;BME280;62722;51.142;17.052;2023-06-04T07:14:50;100764.97;;;14.67;51.72
74310;BME280;62722;51.142;17.052;2023-06-04T07:17:17;100770.41;;;14.66;53.26
74310;BME280;62722;51.142;17.052;2023-06-04T07:19:47;100767.56;;;14.80;52.65
74310;BME280;62722;51.142;17.052;2023-06-04T07:22:16;100769.03;;;14.84;52.77
74310;BME280;62722;51.142;17.052;2023-06-04T07:24:43;100769.78;;;14.97;51.32
74310;BME280;62722;51.142;17.052;2023-06-04T07:27:11;100763.75;;;14.95;52.55
74310;BME280;62722;51.142;17.052;2023-06-04T07:29:39;100768.59;;;15.01;52.25
74310;BME280;62722;51.142;17.052;2023-06-04T07:32:07;100771.09;;;14.91;52.61
74310;BME280;62722;51.142;17.052;2023-06-04T07:34:35;100765.19;;;14.88;51.81
74310;BME280;62722;51.142;17.052;2023-06-04T07:37:03;100764.50;;;15.08;50.83
74310;BME280;62722;51.142;17.052;2023-06-04T07:39:32;100775.16;;;15.54;49.65
74310;BME280;62722;51.142;17.052;2023-06-04T07:41:59;100771.03;;;15.83;47.54
74310;BME280;62722;51.142;17.052;2023-06-04T07:44:26;100771.28;;;15.80;48.96
74310;BME280;62722;51.142;17.052;2023-06-04T07:46:54;100783.75;;;15.91;47.36
74310;BME280;62722;51.142;17.052;2023-06-04T07:49:21;100770.94;;;15.85;48.71
74310;BME280;62722;51.142;17.052;2023-06-04T07:51:48;100776.13;;;15.75;50.40
74310;BME280;62722;51.142;17.052;2023-06-04T07:54:16;100781.09;;;15.80;49.23
74310;BME280;62722;51.142;17.052;2023-06-04T07:56:44;100777.44;;;16.03;47.82
74310;BME280;62722;51.142;17.052;2023-06-04T07:59:12;100771.63;;;16.09;46.26
74310;BME280;62722;51.142;17.052;2023-06-04T08:01:39;100763.25;;;16.14;45.70
74310;BME280;62722;51.142;17.052;2023-06-04T08:04:07;100765.34;;;15.99;47.11
74310;BME280;62722;51.142;17.052;2023-06-04T08:06:35;100761.94;;;16.08;48.29
74310;BME280;62722;51.142;17.052;2023-06-04T08:09:02;100768.22;;;16.29;46.75
74310;BME280;62722;51.142;17.052;2023-06-04T08:11:29;100763.28;;;16.57;44.35
74310;BME280;62722;51.142;17.052;2023-06-04T08:13:58;100763.63;;;16.52;44.06
74310;BME280;62722;51.142;17.052;2023-06-04T08:16:26;100762.94;;;16.50;44.65
74310;BME280;62722;51.142;17.052;2023-06-04T08:18:53;100768.09;;;16.74;43.35
74310;BME280;62722;51.142;17.052;2023-06-04T08:21:26;100765.72;;;16.91;41.80
74310;BME280;62722;51.142;17.052;2023-06-04T08:23:54;100763.09;;;17.01;42.23
74310;BME280;62722;51.142;17.052;2023-06-04T08:26:22;100762.66;;;16.96;43.94
74310;BME280;62722;51.142;17.052;2023-06-04T08:28:53;100763.03;;;17.12;42.57
74310;BME280;62722;51.142;17.052;2023-06-04T08:31:21;100765.38;;;17.26;39.61
74310;BME280;62722;51.142;17.052;2023-06-04T08:33:49;100763.41;;;17.08;40.59
74310;BME280;62722;51.142;17.052;2023-06-04T08:36:16;100756.84;;;17.12;42.49
74310;BME280;62722;51.142;17.052;2023-06-04T08:38:44;100764.41;;;17.07;42.02
74310;BME280;62722;51.142;17.052;2023-06-04T08:41:14;100766.94;;;17.08;39.66
74310;BME280;62722;51.142;17.052;2023-06-04T08:43:42;100759.72;;;17.20;40.06
74310;BME280;62722;51.142;17.052;2023-06-04T08:46:15;100772.22;;;17.40;40.62
74310;BME280;62722;51.142;17.052;2023-06-04T08:48:44;100772.53;;;17.46;39.65
74310;BME280;62722;51.142;17.052;2023-06-04T08:51:13;100771.63;;;17.36;38.90
74310;BME280;62722;51.142;17.052;2023-06-04T08:53:42;100767.13;;;17.16;40.04
74310;BME280;62722;51.142;17.052;2023-06-04T08:56:13;100770.59;;;17.07;39.03
74310;BME280;62722;51.142;17.052;2023-06-04T08:58:41;100771.25;;;16.99;40.75
74310;BME280;62722;51.142;17.052;2023-06-04T09:01:10;100765.22;;;17.18;41.59
74310;BME280;62722;51.142;17.052;2023-06-04T09:03:38;100785.00;;;17.67;39.92
74310;BME280;62722;51.142;17.052;2023-06-04T09:06:07;100776.31;;;17.65;40.45
74310;BME280;62722;51.142;17.052;2023-06-04T09:08:37;100774.34;;;17.67;40.95
74310;BME280;62722;51.142;17.052;2023-06-04T09:11:09;100777.47;;;17.72;39.69
74310;BME280;62722;51.142;17.052;2023-06-04T09:13:38;100776.75;;;17.70;38.76
74310;BME280;62722;51.142;17.052;2023-06-04T09:16:08;100770.22;;;17.83;38.63
74310;BME280;62722;51.142;17.052;2023-06-04T09:18:35;100769.97;;;17.96;37.19
74310;BME280;62722;51.142;17.052;2023-06-04T09:21:04;100773.69;;;18.14;36.84
74310;BME280;62722;51.142;17.052;2023-06-04T09:23:37;100771.81;;;18.05;37.51
74310;BME280;62722;51.142;17.052;2023-06-04T09:26:07;100779.63;;;18.27;36.61
74310;BME280;62722;51.142;17.052;2023-06-04T09:28:35;100778.72;;;18.08;37.35
74310;BME280;62722;51.142;17.052;2023-06-04T09:31:03;100772.41;;;18.09;36.84
74310;BME280;62722;51.142;17.052;2023-06-04T09:33:30;100778.75;;;18.17;36.88
74310;BME280;62722;51.142;17.052;2023-06-04T09:36:11;100779.28;;;18.11;37.23
74310;BME280;62722;51.142;17.052;2023-06-04T09:38:41;100770.00;;;18.06;38.08
74310;BME280;62722;51.142;17.052;2023-06-04T09:41:11;100777.28;;;18.04;37.58
74310;BME280;62722;51.142;17.052;2023-06-04T09:43:40;100770.47;;;18.20;35.62
74310;BME280;62722;51.142;17.052;2023-06-04T09:46:09;100768.25;;;18.35;36.82
74310;BME280;62722;51.142;17.052;2023-06-04T09:48:37;100770.06;;;18.34;36.32
74310;BME280;62722;51.142;17.052;2023-06-04T09:51:08;100780.47;;;18.37;36.67
74310;BME280;62722;51.142;17.052;2023-06-04T09:53:37;100767.53;;;18.23;35.98
74310;BME280;62722;51.142;17.052;2023-06-04T09:56:06;100762.47;;;18.20;36.71
74310;BME280;62722;51.142;17.052;2023-06-04T09:58:38;100758.66;;;18.23;35.22
74310;BME280;62722;51.142;17.052;2023-06-04T10:01:05;100754.84;;;18.16;35.44
74310;BME280;62722;51.142;17.052;2023-06-04T10:03:34;100752.63;;;18.21;36.54
74310;BME280;62722;51.142;17.052;2023-06-04T10:06:03;100758.75;;;18.71;35.86
74310;BME280;62722;51.142;17.052;2023-06-04T10:08:32;100744.84;;;18.77;34.94
74310;BME280;62722;51.142;17.052;2023-06-04T10:11:00;100748.47;;;18.76;36.29
74310;BME280;62722;51.142;17.052;2023-06-04T10:13:34;100744.84;;;18.77;35.87
74310;BME280;62722;51.142;17.052;2023-06-04T10:16:17;100740.59;;;18.74;37.02
74310;BME280;62722;51.142;17.052;2023-06-04T10:19:14;100739.34;;;18.69;37.69
74310;BME280;62722;51.142;17.052;2023-06-04T10:22:09;100733.84;;;18.70;36.24
74310;BME280;62722;51.142;17.052;2023-06-04T10:28:42;100736.63;;;18.49;35.75
74310;BME280;62722;51.142;17.052;2023-06-04T10:31:33;100739.28;;;18.49;34.73
74310;BME280;62722;51.142;17.052;2023-06-04T10:34:00;100725.91;;;18.30;35.58
74310;BME280;62722;51.142;17.052;2023-06-04T10:36:29;100738.59;;;18.47;35.03
74310;BME280;62722;51.142;17.052;2023-06-04T10:38:57;100727.09;;;18.57;35.65
74310;BME280;62722;51.142;17.052;2023-06-04T10:41:24;100733.81;;;18.89;36.14
74310;BME280;62722;51.142;17.052;2023-06-04T10:44:01;100730.56;;;19.05;36.20
74310;BME280;62722;51.142;17.052;2023-06-04T10:46:37;100736.91;;;19.14;34.88
74310;BME280;62722;51.142;17.052;2023-06-04T10:49:05;100732.97;;;19.08;35.09
74310;BME280;62722;51.142;17.052;2023-06-04T10:51:33;100720.31;;;19.01;34.34
74310;BME280;62722;51.142;17.052;2023-06-04T10:54:03;100729.44;;;19.08;35.01
74310;BME280;62722;51.142;17.052;2023-06-04T10:56:31;100719.59;;;19.08;34.98
74310;BME280;62722;51.142;17.052;2023-06-04T10:59:12;100721.72;;;18.95;34.94
74310;BME280;62722;51.142;17.052;2023-06-04T11:01:40;100718.34;;;18.93;36.14
74310;BME280;62722;51.142;17.052;2023-06-04T11:04:18;100726.75;;;19.08;34.82
74310;BME280;62722;51.142;17.052;2023-06-04T11:06:45;100724.50;;;19.03;35.01
74310;BME280;62722;51.142;17.052;2023-06-04T11:09:13;100721.31;;;18.90;35.50
74310;BME280;62722;51.142;17.052;2023-06-04T11:11:42;100718.19;;;19.04;35.31
74310;BME280;62722;51.142;17.052;2023-06-04T11:14:12;100718.59;;;19.00;36.11
74310;BME280;62722;51.142;17.052;2023-06-04T11:16:39;100718.28;;;19.22;35.41
74310;BME280;62722;51.142;17.052;2023-06-04T11:19:07;100713.47;;;19.35;34.58
74310;BME280;62722;51.142;17.052;2023-06-04T11:21:34;100716.44;;;19.41;34.45
74310;BME280;62722;51.142;17.052;2023-06-04T11:24:04;100721.91;;;19.50;33.16
74310;BME280;62722;51.142;17.052;2023-06-04T11:26:32;100719.91;;;19.52;34.18
74310;BME280;62722;51.142;17.052;2023-06-04T11:29:01;100716.25;;;19.53;34.81
74310;BME280;62722;51.142;17.052;2023-06-04T11:31:40;100720.75;;;19.52;34.91
74310;BME280;62722;51.142;17.052;2023-06-04T11:34:09;100715.25;;;19.54;34.41
74310;BME280;62722;51.142;17.052;2023-06-04T11:36:37;100710.78;;;19.44;34.28
74310;BME280;62722;51.142;17.052;2023-06-04T11:39:05;100715.72;;;19.30;33.89
74310;BME280;62722;51.142;17.052;2023-06-04T11:41:34;100714.78;;;19.21;34.80
74310;BME280;62722;51.142;17.052;2023-06-04T11:44:04;100707.03;;;19.18;34.88
74310;BME280;62722;51.142;17.052;2023-06-04T11:46:33;100704.25;;;19.10;34.71
74310;BME280;62722;51.142;17.052;2023-06-04T11:49:02;100697.16;;;19.28;34.83
74310;BME280;62722;51.142;17.052;2023-06-04T11:51:30;100705.28;;;19.36;34.46
74310;BME280;62722;51.142;17.052;2023-06-04T11:53:58;100700.50;;;19.30;34.08
74310;BME280;62722;51.142;17.052;2023-06-04T11:56:25;100708.97;;;19.35;33.99
74310;BME280;62722;51.142;17.052;2023-06-04T11:58:54;100702.91;;;19.33;35.03
74310;BME280;62722;51.142;17.052;2023-06-04T12:01:21;100699.66;;;19.39;35.02
74310;BME280;62722;51.142;17.052;2023-06-04T12:03:55;100704.13;;;19.58;34.93
74310;BME280;62722;51.142;17.052;2023-06-04T12:06:23;100697.84;;;19.77;34.65
74310;BME280;62722;51.142;17.052;2023-06-04T12:08:51;100706.16;;;20.01;34.17
74310;BME280;62722;51.142;17.052;2023-06-04T12:11:25;100695.66;;;20.08;33.67
74310;BME280;62722;51.142;17.052;2023-06-04T12:13:54;100707.78;;;20.12;32.78
74310;BME280;62722;51.142;17.052;2023-06-04T12:16:22;100703.81;;;19.88;33.55
74310;BME280;62722;51.142;17.052;2023-06-04T12:18:50;100697.72;;;19.96;31.76
74310;BME280;62722;51.142;17.052;2023-06-04T12:21:21;100703.47;;;19.74;31.94
74310;BME280;62722;51.142;17.052;2023-06-04T12:23:54;100700.34;;;19.78;32.54
74310;BME280;62722;51.142;17.052;2023-06-04T12:26:22;100694.19;;;19.68;32.36
74310;BME280;62722;51.142;17.052;2023-06-04T12:29:00;100696.78;;;19.60;32.55
74310;BME280;62722;51.142;17.052;2023-06-04T12:31:27;100691.97;;;19.64;32.98
74310;BME280;62722;51.142;17.052;2023-06-04T12:34:00;100695.44;;;20.01;33.03
74310;BME280;62722;51.142;17.052;2023-06-04T12:36:29;100688.94;;;20.21;32.14
74310;BME280;62722;51.142;17.052;2023-06-04T12:39:00;100685.66;;;20.27;32.33
74310;BME280;62722;51.142;17.052;2023-06-04T12:41:28;100689.41;;;20.17;32.16
74310;BME280;62722;51.142;17.052;2023-06-04T12:43:57;100692.31;;;20.06;32.49
74310;BME280;62722;51.142;17.052;2023-06-04T12:46:25;100694.03;;;19.97;33.78
74310;BME280;62722;51.142;17.052;2023-06-04T12:48:53;100692.22;;;20.15;31.92
74310;BME280;62722;51.142;17.052;2023-06-04T12:51:21;100694.16;;;20.23;32.21
74310;BME280;62722;51.142;17.052;2023-06-04T12:53:50;100689.91;;;20.30;32.49
74310;BME280;62722;51.142;17.052;2023-06-04T12:56:18;100698.25;;;20.45;31.37
74310;BME280;62722;51.142;17.052;2023-06-04T12:58:46;100694.81;;;20.34;30.78
74310;BME280;62722;51.142;17.052;2023-06-04T13:01:14;100689.72;;;20.14;31.32